Time;durP1;ratioP1;P1;durP2;ratioP2;P2;SDS_P1;SDS_P2;PMS_P1;PMS_P2;Temp;Humidity;BMP_temperature;BMP_pressure;BME280_temperature;BME280_humidity;BME280_pressure;Samples;Min_cycle;Max_cycle;Signal;HPM_P1;HPM_P2
2022/01/23 00:01:52;;;;;;;8.77;5.33;;;;;;;;;;5035382;28;20280;-69
2022/01/23 00:04:18;;;;;;;11.70;5.87;;;;;;;;;;5040197;28;20190;-69
2022/01/23 00:06:45;;;;;;;14.17;6.37;;;;;;;;;;5045542;28;20259;-69
2022/01/23 00:09:11;;;;;;;9.83;5.73;;;;;;;;;;5043358;28;20232;-69
2022/01/23 00:11:43;;;;;;;14.93;6.50;;;;;;;;;;5043818;28;20178;-70
2022/01/23 00:19:17;;;;;;;9.77;5.60;;;;;;;;;;5045744;28;20223;-70
2022/01/23 00:21:45;;;;;;;10.07;5.80;;;;;;;;;;5045537;28;20189;-69
2022/01/23 00:32:05;;;;;;;10.97;5.40;;;;;;;;;;5044216;28;21228;-70
2022/01/23 00:34:30;;;;;;;9.97;5.43;;;;;;;;;;5045322;28;20208;-70
2022/01/23 00:36:55;;;;;;;11.90;5.33;;;;;;;;;;5042602;28;20221;-70
2022/01/23 00:39:21;;;;;;;12.00;5.33;;;;;;;;;;5044743;28;20264;-69
2022/01/23 00:41:46;;;;;;;14.67;5.20;;;;;;;;;;5041413;28;20486;-69
2022/01/23 00:44:11;;;;;;;10.77;5.50;;;;;;;;;;5044430;28;21102;-69
2022/01/23 00:46:39;;;;;;;12.67;5.47;;;;;;;;;;5044518;28;20219;-69
2022/01/23 00:51:37;;;;;;;15.90;5.43;;;;;;;;;;5044112;28;20201;-69
2022/01/23 00:54:04;;;;;;;16.33;5.90;;;;;;;;;;5042677;28;20695;-69
2022/01/23 00:56:30;;;;;;;12.63;5.43;;;;;;;;;;5044102;28;20185;-69
2022/01/23 00:58:55;;;;;;;9.03;5.50;;;;;;;;;;5042573;28;20196;-69
2022/01/23 01:01:20;;;;;;;13.43;6.03;;;;;;;;;;5052075;28;20189;-69
2022/01/23 01:03:47;;;;;;;11.07;5.60;;;;;;;;;;5044639;28;20221;-69
2022/01/23 01:06:12;;;;;;;11.47;5.47;;;;;;;;;;5043303;28;20664;-69
2022/01/23 01:08:38;;;;;;;9.67;5.87;;;;;;;;;;5045597;28;20251;-69
2022/01/23 01:35:26;;;;;;;8.30;5.10;;;;;;;;;;5040616;28;20689;-69
2022/01/23 01:37:52;;;;;;;9.67;5.47;;;;;;;;;;5043003;28;20535;-69
2022/01/23 01:40:19;;;;;;;8.00;5.37;;;;;;;;;;5039148;28;20201;-68
2022/01/23 01:42:45;;;;;;;7.87;4.87;;;;;;;;;;5044078;28;20188;-69
2022/01/23 01:45:10;;;;;;;10.33;5.30;;;;;;;;;;5039489;28;20189;-69
2022/01/23 01:47:36;;;;;;;10.93;5.10;;;;;;;;;;5041418;28;20197;-69
2022/01/23 01:50:01;;;;;;;7.90;5.20;;;;;;;;;;5039617;28;20634;-69
2022/01/23 01:52:27;;;;;;;11.53;5.10;;;;;;;;;;5041766;28;20608;-68
2022/01/23 01:55:00;;;;;;;9.47;4.90;;;;;;;;;;5041686;28;20189;-69
2022/01/23 01:57:31;;;;;;;9.70;5.43;;;;;;;;;;5036672;28;20198;-68
2022/01/23 02:00:25;;;;;;;14.30;5.00;;;;;;;;;;5041172;28;20704;-69
2022/01/23 02:10:51;;;;;;;8.13;4.97;;;;;;;;;;5041846;28;20196;-69
2022/01/23 02:13:19;;;;;;;10.33;5.60;;;;;;;;;;5041637;28;20190;-69
2022/01/23 02:24:10;;;;;;;8.10;5.07;;;;;;;;;;5029739;28;20621;-69
2022/01/23 02:51:51;;;;;;;8.50;4.67;;;;;;;;;;5043284;28;20216;-69
2022/01/23 02:54:39;;;;;;;12.07;4.97;;;;;;;;;;5043995;28;20198;-69
2022/01/23 02:57:06;;;;;;;9.50;5.33;;;;;;;;;;5048562;28;20200;-68
2022/01/23 02:59:36;;;;;;;10.37;6.00;;;;;;;;;;5042749;28;20652;-68
2022/01/23 03:02:14;;;;;;;15.20;6.03;;;;;;;;;;5044883;28;20639;-68
2022/01/23 03:04:50;;;;;;;10.60;6.00;;;;;;;;;;5045807;28;20205;-68
2022/01/23 03:10:05;;;;;;;10.70;5.67;;;;;;;;;;5044462;28;20662;-69
2022/01/23 03:13:27;;;;;;;8.47;5.33;;;;;;;;;;5044905;28;20189;-69
2022/01/23 03:26:50;;;;;;;8.63;4.90;;;;;;;;;;5035409;28;20602;-69
2022/01/23 03:29:22;;;;;;;10.17;5.60;;;;;;;;;;5058792;28;20272;-69
2022/01/23 03:32:01;;;;;;;8.13;4.77;;;;;;;;;;5043854;28;21257;-69
2022/01/23 03:34:28;;;;;;;7.97;4.70;;;;;;;;;;5046028;28;20276;-69
2022/01/23 03:36:54;;;;;;;7.73;5.37;;;;;;;;;;5042268;28;20186;-69
2022/01/23 03:39:20;;;;;;;7.47;4.63;;;;;;;;;;5041817;28;20209;-69
2022/01/23 03:41:45;;;;;;;10.30;4.93;;;;;;;;;;5043635;28;20181;-69
2022/01/23 03:44:13;;;;;;;9.40;5.20;;;;;;;;;;5044671;28;20596;-69
2022/01/23 03:49:33;;;;;;;8.97;5.50;;;;;;;;;;5044516;28;20201;-69
2022/01/23 03:52:02;;;;;;;11.53;5.93;;;;;;;;;;5047487;28;20181;-68
2022/01/23 03:54:28;;;;;;;11.17;5.70;;;;;;;;;;5045056;28;20178;-69
2022/01/23 03:56:58;;;;;;;10.47;5.83;;;;;;;;;;5037869;28;20668;-70
2022/01/23 03:59:24;;;;;;;11.57;5.13;;;;;;;;;;5039215;28;20202;-68
2022/01/23 04:01:50;;;;;;;10.57;5.23;;;;;;;;;;5045357;28;20190;-69
2022/01/23 04:04:36;;;;;;;11.47;6.20;;;;;;;;;;5043697;28;20181;-68
2022/01/23 04:07:03;;;;;;;14.63;6.10;;;;;;;;;;5041442;28;20245;-68
2022/01/23 04:09:29;;;;;;;12.47;6.17;;;;;;;;;;5040129;28;20719;-69
2022/01/23 04:11:54;;;;;;;13.47;5.67;;;;;;;;;;5046299;28;20197;-69
2022/01/23 04:14:22;;;;;;;17.67;7.07;;;;;;;;;;5043947;28;20219;-68
2022/01/23 04:17:40;;;;;;;11.40;6.27;;;;;;;;;;5045537;28;20700;-68
2022/01/23 04:48:31;;;;;;;12.43;6.73;;;;;;;;;;5036409;28;20239;-68
2022/01/23 05:04:28;;;;;;;10.80;6.63;;;;;;;;;;5031529;28;20276;-69
2022/01/23 05:09:26;;;;;;;10.57;6.33;;;;;;;;;;5043260;28;20736;-69
2022/01/23 05:11:56;;;;;;;13.37;6.90;;;;;;;;;;5044074;28;20209;-69
2022/01/23 05:14:29;;;;;;;10.97;6.33;;;;;;;;;;5041541;28;20204;-69
2022/01/23 05:16:56;;;;;;;13.37;6.60;;;;;;;;;;5044472;28;20193;-69
2022/01/23 05:19:21;;;;;;;13.47;5.90;;;;;;;;;;5043473;28;20194;-69
2022/01/23 05:22:02;;;;;;;13.03;6.23;;;;;;;;;;5040699;28;20174;-69
2022/01/23 05:24:33;;;;;;;12.80;6.90;;;;;;;;;;5042390;28;20185;-69
2022/01/23 05:27:04;;;;;;;12.33;6.63;;;;;;;;;;5039834;28;20201;-68
2022/01/23 05:29:30;;;;;;;10.87;7.27;;;;;;;;;;5040461;28;20211;-68
2022/01/23 05:31:55;;;;;;;11.90;7.20;;;;;;;;;;5035584;28;20209;-69
2022/01/23 05:34:22;;;;;;;12.53;7.07;;;;;;;;;;5041877;28;20195;-69
2022/01/23 05:36:48;;;;;;;13.00;7.90;;;;;;;;;;5043965;28;20186;-69
2022/01/23 05:39:16;;;;;;;12.13;7.00;;;;;;;;;;5040961;28;20201;-69
2022/01/23 05:41:41;;;;;;;15.23;7.23;;;;;;;;;;5042968;28;20547;-69
2022/01/23 05:44:07;;;;;;;13.03;7.10;;;;;;;;;;5041661;28;20181;-69
2022/01/23 05:46:32;;;;;;;15.43;7.80;;;;;;;;;;5041696;28;20578;-69
2022/01/23 05:48:58;;;;;;;11.50;7.17;;;;;;;;;;5038208;28;20200;-69
2022/01/23 05:51:23;;;;;;;12.63;7.47;;;;;;;;;;5044266;28;20548;-67
2022/01/23 05:53:48;;;;;;;11.23;7.27;;;;;;;;;;5040275;28;20189;-69
2022/01/23 05:56:16;;;;;;;10.40;7.10;;;;;;;;;;5048393;28;20185;-69
2022/01/23 05:58:41;;;;;;;12.93;7.33;;;;;;;;;;5041935;28;20670;-69
2022/01/23 06:01:07;;;;;;;14.50;6.83;;;;;;;;;;5042892;28;20193;-69
2022/01/23 06:03:32;;;;;;;12.37;7.53;;;;;;;;;;5041482;28;20538;-68
2022/01/23 06:05:57;;;;;;;12.10;6.70;;;;;;;;;;5041765;28;20200;-69
2022/01/23 06:08:24;;;;;;;11.87;7.17;;;;;;;;;;5042701;28;20201;-69
2022/01/23 06:10:54;;;;;;;11.97;7.13;;;;;;;;;;5039152;28;20473;-69
2022/01/23 06:13:20;;;;;;;14.37;7.40;;;;;;;;;;5031686;28;20519;-69
2022/01/23 06:15:47;;;;;;;18.40;7.13;;;;;;;;;;5044251;28;20205;-68
2022/01/23 06:18:13;;;;;;;15.13;7.50;;;;;;;;;;5044590;28;20586;-69
2022/01/23 06:20:38;;;;;;;14.00;7.20;;;;;;;;;;5044487;28;20222;-69
2022/01/23 06:23:04;;;;;;;16.93;7.83;;;;;;;;;;5046945;28;20189;-68
2022/01/23 06:25:33;;;;;;;13.27;7.70;;;;;;;;;;5040174;28;20668;-68
2022/01/23 06:28:00;;;;;;;14.60;7.53;;;;;;;;;;5032491;28;20202;-68
2022/01/23 06:30:25;;;;;;;11.63;7.33;;;;;;;;;;5039320;28;20293;-69
2022/01/23 06:32:51;;;;;;;14.40;7.40;;;;;;;;;;5044541;28;20668;-69
2022/01/23 06:35:16;;;;;;;12.80;7.67;;;;;;;;;;5040847;28;20198;-69
2022/01/23 06:37:41;;;;;;;19.63;8.57;;;;;;;;;;5041789;28;20185;-69
2022/01/23 06:40:07;;;;;;;13.40;8.13;;;;;;;;;;4343693;28;10000714;-69
2022/01/23 06:42:33;;;;;;;14.07;7.20;;;;;;;;;;5042978;28;20816;-69
2022/01/23 06:44:59;;;;;;;13.93;8.23;;;;;;;;;;5041355;28;20197;-69
2022/01/23 06:47:25;;;;;;;17.23;8.23;;;;;;;;;;5041235;28;20549;-69
2022/01/23 06:49:50;;;;;;;13.53;8.07;;;;;;;;;;5042253;28;20472;-69
2022/01/23 06:52:16;;;;;;;14.50;8.07;;;;;;;;;;5038910;28;20602;-69
2022/01/23 06:54:41;;;;;;;14.57;8.27;;;;;;;;;;5039007;28;20189;-69
2022/01/23 06:57:07;;;;;;;13.10;7.40;;;;;;;;;;5044416;28;20182;-69
2022/01/23 06:59:32;;;;;;;11.80;7.60;;;;;;;;;;5038314;28;20193;-68
2022/01/23 07:01:58;;;;;;;15.90;8.40;;;;;;;;;;5038868;28;20312;-68
2022/01/23 07:04:24;;;;;;;16.33;8.50;;;;;;;;;;5043168;28;20208;-68
2022/01/23 07:06:49;;;;;;;15.40;8.90;;;;;;;;;;5041662;28;20212;-68
2022/01/23 07:09:14;;;;;;;15.77;8.17;;;;;;;;;;5043531;28;20290;-68
2022/01/23 07:11:40;;;;;;;12.87;8.30;;;;;;;;;;5040126;28;20561;-69
2022/01/23 07:14:05;;;;;;;15.80;8.83;;;;;;;;;;5041010;28;20181;-69
2022/01/23 07:16:31;;;;;;;18.17;8.83;;;;;;;;;;5039569;28;20189;-68
2022/01/23 07:18:56;;;;;;;14.73;8.30;;;;;;;;;;5037154;28;20590;-67
2022/01/23 07:21:22;;;;;;;17.17;8.27;;;;;;;;;;5038239;28;20169;-69
2022/01/23 07:23:51;;;;;;;15.77;8.43;;;;;;;;;;5042931;28;20280;-68
2022/01/23 07:26:18;;;;;;;17.40;8.60;;;;;;;;;;5036396;28;20636;-68
2022/01/23 07:28:45;;;;;;;14.43;9.10;;;;;;;;;;5040670;28;20389;-69
2022/01/23 07:31:11;;;;;;;16.70;9.37;;;;;;;;;;5039235;28;20211;-69
2022/01/23 07:33:37;;;;;;;19.50;8.80;;;;;;;;;;5038432;28;20284;-68
2022/01/23 07:36:03;;;;;;;18.57;9.50;;;;;;;;;;5042280;28;20191;-69
2022/01/23 07:38:30;;;;;;;18.10;9.93;;;;;;;;;;5041300;28;20263;-68
2022/01/23 07:40:55;;;;;;;15.47;8.60;;;;;;;;;;5039966;28;20184;-68
2022/01/23 07:43:21;;;;;;;14.63;8.83;;;;;;;;;;5040839;28;20272;-68
2022/01/23 07:45:46;;;;;;;17.47;9.60;;;;;;;;;;5043121;28;20206;-68
2022/01/23 07:48:12;;;;;;;17.43;8.80;;;;;;;;;;5039468;28;21482;-68
2022/01/23 07:50:37;;;;;;;16.80;9.60;;;;;;;;;;5043497;28;20191;-68
2022/01/23 07:53:04;;;;;;;23.10;9.90;;;;;;;;;;5040709;28;20201;-69
2022/01/23 07:55:30;;;;;;;16.30;9.60;;;;;;;;;;5043918;28;20609;-70
2022/01/23 07:58:02;;;;;;;18.17;9.67;;;;;;;;;;5040749;28;20272;-69
2022/01/23 08:00:28;;;;;;;14.17;8.93;;;;;;;;;;5043445;28;20791;-69
2022/01/23 08:02:54;;;;;;;15.97;9.73;;;;;;;;;;5037374;28;20540;-68
2022/01/23 08:05:19;;;;;;;16.63;10.53;;;;;;;;;;5041136;28;20185;-68
2022/01/23 08:07:44;;;;;;;22.30;9.50;;;;;;;;;;5039424;28;20485;-69
2022/01/23 08:10:10;;;;;;;22.50;10.67;;;;;;;;;;5037585;28;20229;-69
2022/01/23 08:12:36;;;;;;;18.60;10.27;;;;;;;;;;5043406;28;20509;-69
2022/01/23 08:15:03;;;;;;;16.83;10.13;;;;;;;;;;5039044;28;20189;-69
2022/01/23 08:17:28;;;;;;;18.50;10.17;;;;;;;;;;5040017;28;20181;-68
2022/01/23 08:19:56;;;;;;;18.10;11.67;;;;;;;;;;5042436;28;20196;-68
2022/01/23 08:22:23;;;;;;;18.93;11.27;;;;;;;;;;5040839;28;20330;-68
2022/01/23 08:24:49;;;;;;;20.73;11.07;;;;;;;;;;5038349;28;20631;-69
2022/01/23 08:27:15;;;;;;;21.97;11.70;;;;;;;;;;5037310;28;20220;-69
2022/01/23 08:29:40;;;;;;;18.03;11.07;;;;;;;;;;5039418;28;20666;-69
2022/01/23 08:32:06;;;;;;;20.27;11.07;;;;;;;;;;5037993;28;20560;-68
2022/01/23 08:34:32;;;;;;;22.37;11.63;;;;;;;;;;5041324;28;20192;-69
2022/01/23 08:36:58;;;;;;;18.47;11.20;;;;;;;;;;5037646;28;20170;-68
2022/01/23 08:39:25;;;;;;;18.63;11.13;;;;;;;;;;5040707;28;20244;-68
2022/01/23 08:41:51;;;;;;;18.60;10.50;;;;;;;;;;5039428;28;20215;-68
2022/01/23 08:44:24;;;;;;;24.90;11.07;;;;;;;;;;5038604;28;20275;-68
2022/01/23 08:46:50;;;;;;;19.93;12.13;;;;;;;;;;5042908;28;20732;-68
2022/01/23 08:49:17;;;;;;;21.70;12.47;;;;;;;;;;5039128;28;20190;-68
2022/01/23 08:51:44;;;;;;;17.17;11.83;;;;;;;;;;5041614;28;20260;-70
2022/01/23 08:54:10;;;;;;;22.27;12.53;;;;;;;;;;5037043;28;20185;-68
2022/01/23 08:56:35;;;;;;;20.37;12.87;;;;;;;;;;5041179;28;20557;-69
2022/01/23 08:59:01;;;;;;;21.47;12.67;;;;;;;;;;5041462;28;20182;-68
2022/01/23 09:01:27;;;;;;;23.50;13.27;;;;;;;;;;5040011;28;20240;-69
2022/01/23 09:03:53;;;;;;;20.77;12.10;;;;;;;;;;5036225;28;20208;-68
2022/01/23 09:06:18;;;;;;;20.70;12.30;;;;;;;;;;5041740;28;20206;-68
2022/01/23 09:08:44;;;;;;;25.20;12.60;;;;;;;;;;5038245;28;20534;-68
2022/01/23 09:11:27;;;;;;;26.33;13.47;;;;;;;;;;5039688;28;20181;-68
2022/01/23 09:14:17;;;;;;;20.93;11.77;;;;;;;;;;5039031;28;20173;-69
2022/01/23 09:16:41;;;;;;;24.30;13.03;;;;;;;;;;5039898;28;20224;-68
2022/01/23 09:19:08;;;;;;;18.67;11.23;;;;;;;;;;5040209;28;20828;-69
2022/01/23 09:21:34;;;;;;;19.13;12.17;;;;;;;;;;5043574;28;20190;-69
2022/01/23 09:24:00;;;;;;;21.27;12.53;;;;;;;;;;5040004;28;20181;-69
2022/01/23 09:26:25;;;;;;;24.67;12.30;;;;;;;;;;5041531;28;20546;-68
2022/01/23 09:28:54;;;;;;;18.50;11.30;;;;;;;;;;5041374;28;20184;-68
2022/01/23 09:31:45;;;;;;;20.50;11.50;;;;;;;;;;5040200;28;20259;-69
2022/01/23 09:34:11;;;;;;;22.27;12.70;;;;;;;;;;5040017;28;20260;-69
2022/01/23 09:36:36;;;;;;;25.03;12.93;;;;;;;;;;5040098;28;20603;-69
2022/01/23 09:39:02;;;;;;;21.53;12.97;;;;;;;;;;5038569;28;20185;-69
2022/01/23 09:41:29;;;;;;;23.93;14.43;;;;;;;;;;5039802;28;20285;-68
2022/01/23 09:43:55;;;;;;;26.30;13.05;;;;;;;;;;5041411;28;20276;-68
2022/01/23 09:46:23;;;;;;;20.67;12.70;;;;;;;;;;4692085;28;10000577;-69
2022/01/23 09:48:51;;;;;;;21.00;12.63;;;;;;;;;;5037139;28;20269;-69
2022/01/23 09:51:18;;;;;;;19.43;13.13;;;;;;;;;;5044919;28;20787;-68
2022/01/23 09:53:45;;;;;;;25.53;13.30;;;;;;;;;;5043474;28;20189;-70
2022/01/23 09:56:13;;;;;;;21.83;13.00;;;;;;;;;;5041578;28;20174;-69
2022/01/23 09:58:38;;;;;;;23.20;13.73;;;;;;;;;;5042638;28;20200;-69
2022/01/23 10:01:04;;;;;;;18.13;12.80;;;;;;;;;;5042471;28;20189;-69
2022/01/23 10:03:29;;;;;;;21.37;13.60;;;;;;;;;;5040357;28;20247;-69
2022/01/23 10:05:56;;;;;;;21.30;13.40;;;;;;;;;;5035902;28;20232;-69
2022/01/23 10:08:24;;;;;;;21.30;13.10;;;;;;;;;;5041938;28;20190;-69
2022/01/23 10:10:52;;;;;;;18.53;12.40;;;;;;;;;;5038988;28;20311;-69
2022/01/23 10:13:20;;;;;;;17.20;11.60;;;;;;;;;;5043165;28;20189;-68
2022/01/23 10:15:45;;;;;;;21.53;12.30;;;;;;;;;;5039423;28;20189;-69
2022/01/23 10:18:11;;;;;;;17.00;12.03;;;;;;;;;;5035153;28;20652;-69
2022/01/23 10:20:36;;;;;;;19.93;12.47;;;;;;;;;;5042983;28;20208;-69
2022/01/23 10:23:02;;;;;;;20.37;11.93;;;;;;;;;;5040939;28;20185;-70
2022/01/23 10:25:31;;;;;;;17.17;11.55;;;;;;;;;;5033528;28;20213;-70
2022/01/23 10:28:17;;;;;;;17.80;10.82;;;;;;;;;;5041878;28;20679;-69
2022/01/23 10:30:48;;;;;;;22.00;11.23;;;;;;;;;;5044821;28;20220;-69
2022/01/23 10:33:39;;;;;;;17.77;11.07;;;;;;;;;;5045214;28;20196;-69
2022/01/23 10:36:17;;;;;;;22.55;11.50;;;;;;;;;;5039276;28;20254;-69
2022/01/23 10:38:53;;;;;;;16.13;10.85;;;;;;;;;;5045545;28;20189;-69
2022/01/23 10:49:47;;;;;;;17.48;11.85;;;;;;;;;;5041680;28;20181;-69
2022/01/23 10:52:45;;;;;;;21.17;10.70;;;;;;;;;;5044474;28;20181;-70
2022/01/23 10:55:10;;;;;;;19.45;11.30;;;;;;;;;;5043106;28;20189;-69
2022/01/23 10:57:41;;;;;;;16.85;11.00;;;;;;;;;;5043726;28;20464;-69
2022/01/23 11:00:09;;;;;;;17.80;11.15;;;;;;;;;;5040220;28;20247;-68
2022/01/23 11:02:41;;;;;;;16.60;11.18;;;;;;;;;;5040336;28;20208;-69
2022/01/23 11:05:11;;;;;;;16.60;10.73;;;;;;;;;;5042634;28;20671;-69
2022/01/23 11:07:40;;;;;;;18.67;11.27;;;;;;;;;;5040959;28;20534;-69
2022/01/23 11:10:11;;;;;;;17.03;9.90;;;;;;;;;;5040919;28;20633;-69
2022/01/23 11:17:57;;;;;;;13.25;7.80;;;;;;;;;;5042836;28;20301;-70
2022/01/23 11:20:40;;;;;;;12.52;6.90;;;;;;;;;;5046407;28;20232;-68
2022/01/23 11:23:15;;;;;;;11.90;6.68;;;;;;;;;;5042366;28;20525;-69
2022/01/23 11:26:05;;;;;;;6.97;4.57;;;;;;;;;;5040769;28;20514;-69
2022/01/23 11:28:33;;;;;;;7.15;3.33;;;;;;;;;;5042834;28;20661;-69
2022/01/23 11:30:59;;;;;;;5.55;3.30;;;;;;;;;;5042464;28;20213;-69
2022/01/23 11:33:25;;;;;;;4.53;2.80;;;;;;;;;;5045290;28;20251;-69
2022/01/23 11:35:51;;;;;;;5.80;3.72;;;;;;;;;;5043839;28;20300;-69
2022/01/23 11:38:20;;;;;;;8.00;4.43;;;;;;;;;;5044533;28;20476;-69
2022/01/23 11:54:41;;;;;;;7.72;4.97;;;;;;;;;;5041998;28;20200;-69
2022/01/23 11:57:40;;;;;;;11.10;6.38;;;;;;;;;;5041277;28;20181;-69
2022/01/23 12:00:10;;;;;;;12.00;6.65;;;;;;;;;;5041054;28;20185;-69
2022/01/23 12:02:39;;;;;;;14.07;7.13;;;;;;;;;;5046009;28;20736;-68
2022/01/23 12:05:10;;;;;;;11.85;6.63;;;;;;;;;;5042410;28;20208;-69
2022/01/23 12:07:36;;;;;;;8.88;5.45;;;;;;;;;;5046276;28;20405;-69
2022/01/23 12:10:22;;;;;;;9.25;5.15;;;;;;;;;;5042916;28;20715;-69
2022/01/23 12:12:51;;;;;;;9.23;5.35;;;;;;;;;;5038984;28;20190;-69
2022/01/23 12:18:28;;;;;;;7.43;4.63;;;;;;;;;;5043303;28;20639;-68
2022/01/23 12:20:54;;;;;;;4.00;2.40;;;;;;;;;;5044116;28;20549;-68
2022/01/23 12:23:19;;;;;;;3.63;2.30;;;;;;;;;;5041070;28;20186;-68
2022/01/23 12:25:48;;;;;;;7.00;3.40;;;;;;;;;;5041570;28;20178;-68
2022/01/23 12:28:27;;;;;;;8.27;3.70;;;;;;;;;;5039790;28;20223;-68
2022/01/23 12:30:56;;;;;;;9.27;5.10;;;;;;;;;;5043378;28;20212;-69
2022/01/23 12:33:41;;;;;;;9.97;5.77;;;;;;;;;;5041380;28;20250;-69
2022/01/23 12:36:19;;;;;;;13.10;5.60;;;;;;;;;;5038573;28;20260;-69
2022/01/23 12:38:54;;;;;;;11.70;6.83;;;;;;;;;;5040628;28;20629;-70
2022/01/23 12:41:27;;;;;;;12.07;7.00;;;;;;;;;;5042349;28;20196;-69
2022/01/23 12:43:56;;;;;;;15.33;8.10;;;;;;;;;;5040074;28;20182;-68
2022/01/23 12:46:46;;;;;;;17.40;9.23;;;;;;;;;;5038501;28;20209;-68
2022/01/23 12:49:24;;;;;;;12.87;7.63;;;;;;;;;;5037860;28;20181;-68
2022/01/23 12:51:54;;;;;;;12.73;7.33;;;;;;;;;;5037851;28;20200;-69
2022/01/23 12:54:23;;;;;;;13.67;7.87;;;;;;;;;;5040347;28;20239;-69
2022/01/23 12:56:50;;;;;;;15.40;9.33;;;;;;;;;;5035193;28;20190;-69
2022/01/23 12:59:30;;;;;;;16.58;8.93;;;;;;;;;;5036500;28;20869;-69
2022/01/23 13:02:02;;;;;;;15.60;8.73;;;;;;;;;;5040956;28;20181;-69
2022/01/23 13:04:38;;;;;;;17.27;9.65;;;;;;;;;;5040445;28;20181;-69
2022/01/23 13:07:13;;;;;;;14.20;8.57;;;;;;;;;;5042589;28;20205;-68
2022/01/23 13:09:47;;;;;;;16.77;8.82;;;;;;;;;;5038607;28;20681;-68
2022/01/23 13:34:26;;;;;;;12.68;7.43;;;;;;;;;;5037910;28;20215;-69
2022/01/23 13:36:57;;;;;;;13.30;7.72;;;;;;;;;;5039342;28;20186;-68
2022/01/23 13:39:31;;;;;;;6.22;4.30;;;;;;;;;;5036693;28;20268;-68
2022/01/23 13:42:46;;;;;;;7.03;3.75;;;;;;;;;;5042076;28;20181;-68
2022/01/23 13:59:32;;;;;;;3.88;2.78;;;;;;;;;;5038211;28;20212;-68
2022/01/23 14:04:30;;;;;;;5.53;3.33;;;;;;;;;;5036910;28;20193;-68
2022/01/23 14:06:56;;;;;;;5.25;3.03;;;;;;;;;;5041624;28;20206;-68
2022/01/23 14:09:24;;;;;;;5.65;3.85;;;;;;;;;;5038110;28;20680;-69
2022/01/23 14:11:50;;;;;;;6.18;3.67;;;;;;;;;;5037873;28;20745;-69
2022/01/23 14:14:19;;;;;;;9.40;5.30;;;;;;;;;;5040672;28;20236;-69
2022/01/23 14:16:47;;;;;;;10.35;5.72;;;;;;;;;;5039257;28;20216;-68
2022/01/23 14:19:22;;;;;;;10.13;5.23;;;;;;;;;;5038227;28;20194;-69
2022/01/23 14:21:52;;;;;;;13.87;7.60;;;;;;;;;;5040901;28;20259;-69
2022/01/23 14:24:26;;;;;;;14.17;7.27;;;;;;;;;;5037617;28;20197;-68
2022/01/23 14:26:59;;;;;;;12.23;6.85;;;;;;;;;;5040739;28;20362;-69
2022/01/23 14:29:25;;;;;;;15.00;8.02;;;;;;;;;;5039551;28;20670;-68
2022/01/23 14:32:17;;;;;;;13.27;6.90;;;;;;;;;;5042282;28;20225;-67
2022/01/23 14:34:42;;;;;;;6.60;4.45;;;;;;;;;;5037094;28;20563;-68
2022/01/23 14:37:08;;;;;;;4.68;2.83;;;;;;;;;;5044747;28;20265;-69
2022/01/23 14:39:36;;;;;;;5.18;3.03;;;;;;;;;;5043062;28;20220;-68
2022/01/23 14:42:16;;;;;;;5.00;2.77;;;;;;;;;;5041217;28;20202;-68
2022/01/23 14:44:42;;;;;;;4.18;2.38;;;;;;;;;;5046297;28;20235;-68
2022/01/23 14:47:09;;;;;;;10.47;5.87;;;;;;;;;;5045482;28;20210;-67
2022/01/23 14:49:36;;;;;;;9.73;5.88;;;;;;;;;;5044534;28;20186;-67
2022/01/23 14:52:03;;;;;;;10.70;6.23;;;;;;;;;;5043702;28;20215;-68
2022/01/23 14:54:32;;;;;;;10.68;5.97;;;;;;;;;;5044949;28;20196;-69
2022/01/23 14:57:01;;;;;;;17.27;7.80;;;;;;;;;;5045083;28;20235;-68
2022/01/23 14:59:29;;;;;;;13.10;7.90;;;;;;;;;;5042222;28;20247;-68
2022/01/23 15:01:54;;;;;;;13.13;7.20;;;;;;;;;;5041939;28;20198;-68
2022/01/23 15:04:20;;;;;;;15.27;7.78;;;;;;;;;;5043941;28;20186;-68
2022/01/23 15:06:47;;;;;;;14.73;8.27;;;;;;;;;;5040534;28;20296;-68
2022/01/23 15:09:16;;;;;;;13.80;7.53;;;;;;;;;;5042127;28;20232;-68
2022/01/23 15:11:41;;;;;;;11.02;5.80;;;;;;;;;;5039350;28;20224;-69
2022/01/23 15:14:10;;;;;;;10.85;5.97;;;;;;;;;;5042657;28;20676;-68
2022/01/23 15:16:36;;;;;;;15.00;8.17;;;;;;;;;;5041754;28;20185;-68
2022/01/23 15:19:03;;;;;;;17.97;7.57;;;;;;;;;;5039730;28;20266;-68
2022/01/23 15:21:29;;;;;;;16.40;8.53;;;;;;;;;;5041723;28;20265;-68
2022/01/23 15:23:57;;;;;;;12.37;7.47;;;;;;;;;;5041137;28;20625;-68
2022/01/23 15:26:25;;;;;;;19.20;8.87;;;;;;;;;;5041620;28;20193;-68
2022/01/23 15:28:50;;;;;;;16.43;8.17;;;;;;;;;;5038696;28;20188;-68
2022/01/23 15:31:17;;;;;;;16.07;8.03;;;;;;;;;;5039365;28;20205;-68
2022/01/23 15:33:43;;;;;;;14.83;7.50;;;;;;;;;;5036954;28;20185;-68
2022/01/23 15:36:09;;;;;;;12.53;7.00;;;;;;;;;;5041962;28;20283;-68
2022/01/23 15:38:36;;;;;;;15.73;7.40;;;;;;;;;;5045115;28;20177;-69
2022/01/23 15:41:02;;;;;;;13.07;7.10;;;;;;;;;;5041600;28;20186;-69
2022/01/23 15:43:27;;;;;;;12.82;6.88;;;;;;;;;;5046195;28;20185;-68
2022/01/23 15:45:53;;;;;;;10.07;5.67;;;;;;;;;;5043568;28;20269;-68
2022/01/23 15:48:19;;;;;;;9.25;5.43;;;;;;;;;;5040153;28;20235;-68
2022/01/23 15:50:44;;;;;;;8.97;5.23;;;;;;;;;;5038231;28;20206;-68
2022/01/23 15:53:10;;;;;;;9.87;5.73;;;;;;;;;;5045371;28;20193;-68
2022/01/23 15:55:35;;;;;;;8.63;4.87;;;;;;;;;;5045977;28;20340;-67
2022/01/23 15:58:01;;;;;;;6.20;3.80;;;;;;;;;;5043098;28;20379;-67
2022/01/23 16:00:26;;;;;;;9.00;4.37;;;;;;;;;;5046386;28;20205;-67
2022/01/23 16:02:52;;;;;;;7.33;4.27;;;;;;;;;;5042890;28;20256;-68
2022/01/23 16:05:19;;;;;;;8.77;4.60;;;;;;;;;;5045170;28;20189;-68
2022/01/23 16:07:45;;;;;;;9.83;5.03;;;;;;;;;;5042442;28;20326;-68
2022/01/23 16:10:11;;;;;;;9.03;4.57;;;;;;;;;;5046376;28;20756;-68
2022/01/23 16:12:41;;;;;;;9.63;5.43;;;;;;;;;;5041692;28;20202;-68
2022/01/23 16:15:08;;;;;;;7.63;4.47;;;;;;;;;;5039792;28;20197;-68
2022/01/23 16:17:34;;;;;;;7.60;4.23;;;;;;;;;;5043018;28;20186;-68
2022/01/23 16:20:02;;;;;;;7.83;3.43;;;;;;;;;;5045697;28;20189;-67
2022/01/23 16:22:28;;;;;;;7.35;3.90;;;;;;;;;;5041993;28;20229;-68
2022/01/23 16:24:53;;;;;;;5.97;3.70;;;;;;;;;;5038586;28;20610;-68
2022/01/23 16:27:19;;;;;;;6.63;3.70;;;;;;;;;;5043289;28;20221;-68
2022/01/23 16:29:44;;;;;;;7.13;3.17;;;;;;;;;;5036700;28;20235;-68
2022/01/23 16:32:10;;;;;;;5.57;3.40;;;;;;;;;;5042191;28;20194;-68
2022/01/23 16:34:36;;;;;;;5.80;3.47;;;;;;;;;;5042937;28;20193;-67
2022/01/23 16:37:03;;;;;;;7.43;3.47;;;;;;;;;;5041637;28;20189;-68
2022/01/23 16:39:29;;;;;;;7.57;3.33;;;;;;;;;;5044419;28;20667;-68
2022/01/23 16:41:54;;;;;;;6.70;3.57;;;;;;;;;;5043723;28;20186;-69
2022/01/23 16:44:25;;;;;;;7.23;3.80;;;;;;;;;;5044342;28;20196;-68
2022/01/23 16:46:51;;;;;;;6.57;3.43;;;;;;;;;;5044723;28;20224;-68
2022/01/23 16:49:17;;;;;;;7.37;3.40;;;;;;;;;;5040370;28;20200;-69
2022/01/23 16:51:43;;;;;;;7.03;3.30;;;;;;;;;;5039140;28;20194;-69
2022/01/23 16:54:11;;;;;;;5.73;3.50;;;;;;;;;;5035282;28;20189;-68
2022/01/23 16:56:38;;;;;;;5.43;3.53;;;;;;;;;;5042055;28;20169;-68
2022/01/23 16:59:04;;;;;;;6.23;3.60;;;;;;;;;;5037366;28;20197;-68
2022/01/23 17:01:30;;;;;;;6.70;3.40;;;;;;;;;;5044232;28;22398;-68
2022/01/23 17:03:56;;;;;;;10.43;3.63;;;;;;;;;;5038501;28;20272;-68
2022/01/23 17:06:25;;;;;;;5.27;3.33;;;;;;;;;;5039205;28;20398;-69
2022/01/23 17:08:51;;;;;;;6.80;3.43;;;;;;;;;;5044798;28;20233;-68
2022/01/23 17:11:17;;;;;;;7.53;3.90;;;;;;;;;;5044217;28;20312;-68
2022/01/23 17:13:44;;;;;;;7.17;3.50;;;;;;;;;;5041448;28;20185;-68
2022/01/23 17:16:16;;;;;;;6.30;3.43;;;;;;;;;;5041338;28;20633;-68
2022/01/23 17:18:43;;;;;;;7.90;3.80;;;;;;;;;;5040888;28;20278;-68
2022/01/23 17:21:09;;;;;;;7.77;3.93;;;;;;;;;;5043662;28;20196;-68
2022/01/23 17:23:35;;;;;;;6.57;3.97;;;;;;;;;;5042040;28;20196;-68
2022/01/23 17:26:01;;;;;;;6.80;4.00;;;;;;;;;;5041432;28;20193;-68
2022/01/23 17:28:27;;;;;;;6.53;3.80;;;;;;;;;;5037596;28;20191;-68
2022/01/23 17:30:52;;;;;;;5.83;3.63;;;;;;;;;;5040138;28;20209;-68
2022/01/23 17:33:18;;;;;;;7.83;3.83;;;;;;;;;;5043605;28;20189;-68
2022/01/23 17:35:45;;;;;;;6.40;3.60;;;;;;;;;;5041563;28;20193;-69
2022/01/23 17:38:11;;;;;;;8.60;4.03;;;;;;;;;;5048691;28;20170;-69
2022/01/23 17:40:36;;;;;;;7.30;3.83;;;;;;;;;;5040876;28;20195;-69
2022/01/23 17:43:02;;;;;;;9.27;4.23;;;;;;;;;;5040534;28;20280;-69
2022/01/23 17:45:37;;;;;;;6.83;4.00;;;;;;;;;;5043942;28;20208;-68
2022/01/23 17:50:59;;;;;;;6.63;3.20;;;;;;;;;;4987121;28;20202;-68
2022/01/23 17:53:24;;;;;;;6.90;3.80;;;;;;;;;;5041736;28;20193;-68
2022/01/23 17:55:50;;;;;;;8.00;4.37;;;;;;;;;;5042853;28;20181;-68
2022/01/23 17:58:16;;;;;;;8.43;4.47;;;;;;;;;;5037395;28;20668;-68
2022/01/23 18:00:43;;;;;;;13.37;4.67;;;;;;;;;;5039384;28;20208;-68
2022/01/23 18:03:14;;;;;;;7.93;3.83;;;;;;;;;;5039080;28;20485;-68
2022/01/23 18:05:41;;;;;;;6.93;4.50;;;;;;;;;;5045540;28;20189;-68
2022/01/23 18:08:07;;;;;;;10.23;4.60;;;;;;;;;;5030618;28;20722;-67
2022/01/23 18:10:33;;;;;;;8.83;4.47;;;;;;;;;;5045971;28;20263;-68
2022/01/23 18:12:58;;;;;;;8.47;4.50;;;;;;;;;;5044292;28;20285;-67
2022/01/23 18:15:24;;;;;;;7.63;4.27;;;;;;;;;;5044903;28;20703;-68